Main page
METAR-TAF:

METAR-TAF

Airports :

Wattisham Flying Station

Wattisham, England

latitude: 52-07N, longitude: 000-58E, elevation: 87 m

Current weather observation

The report was made 55 minutes ago, at 12:50 UTC
Wind 13 kt from the South/Southeast
Temperature 16°C
Humidity 48%
Pressure 1014 hPa
Visibility 10 km or more

METAR: EGUW 051250Z AUTO 15013KT 9999 NCD 16/05 Q1014

Time: 14:45 (13:45 UTC)


TAF: missing

Weather observations and forecasts of more than 4000 airports (METAR and TAF reports).

The available stations are represented by yellow and red dots on the map.

Hover mouse over dot to see the name of the station.

Then click to see weather observations and forecasts.

To change the map : click on the green buttons with a black cross to zoom in, on the green button with a dash to zoom out, or on the green arrows for adjacent maps.


METAR-TAF: